Meridian, California
Current Conditions -  °F | °C
As of 3:53 AM on Thursday 29 Jan 2015 (Local Time) from KMYV Reporting Station
Clear Clear  
Wind Chill: 44°   Ceiling: Unl
Heat Index: 44°   Visibility: 10mi
Dew Point: 42°   Wind: 3mph
Humidity: 93%   Direction: 360°N
Pressure: 30.18"   Gusts: NA
Location:  39.14°N, 121.92°W
Report Text: KMYV 291153Z AUTO 36003KT 10SM CLR 07/06 A3018 RMK AO2 SLP222 T00670056 10100 20050 58004
Loading
Personal Weather Stations






























Interactive Weather Map New forecast layout! Learn more

10-Day Weather Forecast

Advertisements
Track Severe Weather on mobile